createdAt,value
2023-02-03T00:01:44.140Z,3.37
2023-02-03T00:04:29.555Z,5.03
2023-02-03T00:07:15.458Z,3.03
2023-02-03T00:10:00.718Z,4.93
2023-02-03T00:12:46.245Z,3.63
2023-02-03T00:15:31.632Z,3.60
2023-02-03T00:18:17.304Z,3.77
2023-02-03T00:21:02.895Z,3.53
2023-02-03T00:23:48.300Z,3.10
2023-02-03T00:26:33.465Z,3.57
2023-02-03T00:29:21.536Z,3.07
2023-02-03T00:32:06.996Z,3.20
2023-02-03T00:34:52.223Z,3.13
2023-02-03T00:37:37.650Z,3.20
2023-02-03T00:40:25.843Z,2.90
2023-02-03T00:43:11.287Z,3.10
2023-02-03T00:45:56.577Z,3.17
2023-02-03T00:48:41.902Z,4.00
2023-02-03T00:51:27.231Z,4.17
2023-02-03T00:54:13.767Z,3.17
2023-02-03T00:57:00.533Z,3.00
2023-02-03T00:59:45.834Z,3.03
2023-02-03T01:02:31.128Z,3.33
2023-02-03T01:05:16.311Z,2.30
2023-02-03T01:08:02.005Z,2.57
2023-02-03T01:10:47.393Z,2.53
2023-02-03T01:13:32.539Z,2.67
2023-02-03T01:16:20.088Z,2.60
2023-02-03T01:19:06.131Z,3.03
2023-02-03T01:21:51.465Z,2.83
2023-02-03T01:24:36.917Z,2.90
2023-02-03T01:27:23.635Z,3.70
2023-02-03T01:30:09.656Z,2.93
2023-02-03T01:32:55.598Z,2.53
2023-02-03T01:35:41.344Z,3.13
2023-02-03T01:38:29.489Z,3.73
2023-02-03T01:41:19.022Z,2.87
2023-02-03T01:44:40.135Z,2.77
2023-02-03T01:47:35.186Z,2.93
2023-02-03T01:50:36.465Z,2.77
2023-02-03T01:56:10.542Z,2.37
2023-02-03T01:58:56.138Z,3.80
2023-02-03T02:01:42.004Z,4.13
2023-02-03T02:04:37.761Z,3.13
2023-02-03T02:07:24.217Z,1.93
2023-02-03T02:10:10.192Z,2.70
2023-02-03T02:13:00.674Z,2.70
2023-02-03T02:16:17.425Z,3.40
2023-02-03T02:19:24.575Z,2.43
2023-02-03T02:22:20.208Z,2.53
2023-02-03T02:25:37.085Z,2.10
2023-02-03T02:28:38.587Z,1.90
2023-02-03T02:31:44.635Z,3.40
2023-02-03T02:34:33.529Z,2.63
2023-02-03T02:37:39.077Z,2.33
2023-02-03T02:40:37.098Z,2.80
2023-02-03T02:43:50.091Z,1.77
2023-02-03T02:46:48.552Z,2.17
2023-02-03T02:49:37.147Z,2.57
2023-02-03T02:52:25.106Z,2.13
2023-02-03T02:55:16.632Z,2.77
2023-02-03T02:58:07.209Z,2.03
2023-02-03T03:00:52.641Z,2.17
2023-02-03T03:03:40.634Z,2.50
2023-02-03T03:06:36.572Z,2.27
2023-02-03T03:09:26.031Z,2.47
2023-02-03T03:12:21.561Z,2.13
2023-02-03T03:15:16.370Z,2.83
2023-02-03T03:18:11.765Z,1.67
2023-02-03T03:21:05.823Z,1.97
2023-02-03T03:23:54.810Z,1.60
2023-02-03T03:26:55.823Z,1.50
2023-02-03T03:30:01.967Z,2.97
2023-02-03T03:32:48.044Z,2.23
2023-02-03T03:35:49.620Z,2.30
2023-02-03T03:38:50.080Z,1.77
2023-02-03T03:41:47.856Z,1.77
2023-02-03T03:44:39.798Z,1.83
2023-02-03T03:47:32.857Z,1.23
2023-02-03T03:50:28.154Z,1.70
2023-02-03T03:53:16.935Z,1.97
2023-02-03T03:56:06.030Z,1.53
2023-02-03T03:58:53.989Z,2.23
2023-02-03T04:01:41.231Z,3.03
2023-02-03T04:04:27.643Z,4.70
2023-02-03T04:07:14.372Z,5.70
2023-02-03T04:09:59.700Z,4.53
2023-02-03T04:12:44.929Z,8.03
2023-02-03T04:15:31.694Z,5.43
2023-02-03T04:18:18.393Z,5.37
2023-02-03T04:21:03.632Z,4.93
2023-02-03T04:23:50.560Z,5.67
2023-02-03T04:26:35.783Z,7.80
2023-02-03T04:29:25.509Z,5.23
2023-02-03T04:32:11.839Z,8.33
2023-02-03T04:34:58.345Z,5.70
2023-02-03T04:37:43.694Z,5.30
2023-02-03T04:40:29.273Z,4.60
2023-02-03T04:43:17.035Z,5.63
2023-02-03T04:46:02.624Z,3.50
2023-02-03T04:48:47.883Z,2.97
2023-02-03T04:51:33.034Z,5.17
2023-02-03T04:54:18.333Z,5.43
2023-02-03T04:57:03.783Z,8.20
2023-02-03T04:59:49.441Z,5.10
2023-02-03T05:02:34.748Z,5.70
2023-02-03T05:05:20.305Z,5.07
2023-02-03T05:08:06.188Z,4.77
2023-02-03T05:10:51.721Z,5.07
2023-02-03T05:13:37.073Z,4.30
2023-02-03T05:16:22.530Z,4.47
2023-02-03T05:19:09.079Z,6.83
2023-02-03T05:21:54.163Z,3.90
2023-02-03T05:24:39.492Z,7.03
2023-02-03T05:27:24.825Z,6.50
2023-02-03T05:30:11.297Z,5.90
2023-02-03T05:32:56.526Z,5.63
2023-02-03T05:35:41.948Z,6.43
2023-02-03T05:38:27.222Z,5.00
2023-02-03T05:41:31.609Z,5.30
2023-02-03T05:44:16.997Z,3.97
2023-02-03T05:47:02.301Z,4.70
2023-02-03T05:49:47.740Z,4.00
2023-02-03T05:52:32.977Z,4.53
2023-02-03T05:55:18.510Z,5.30
2023-02-03T05:58:05.171Z,4.37
2023-02-03T06:00:50.525Z,4.07
2023-02-03T06:03:36.036Z,4.27
2023-02-03T06:06:21.407Z,3.57
2023-02-03T06:09:08.574Z,3.77
2023-02-03T06:11:53.964Z,3.87
2023-02-03T06:14:39.185Z,4.87
2023-02-03T06:17:24.400Z,6.07
2023-02-03T06:20:13.818Z,3.13
2023-02-03T06:22:59.226Z,3.50
2023-02-03T06:25:49.153Z,4.50
2023-02-03T06:28:35.104Z,4.70
2023-02-03T06:31:20.993Z,3.83
2023-02-03T06:34:06.154Z,2.87
2023-02-03T06:36:51.336Z,3.47
2023-02-03T06:39:36.509Z,5.10
2023-02-03T06:42:21.844Z,3.07
2023-02-03T06:45:08.363Z,3.10
2023-02-03T06:47:53.990Z,3.17
2023-02-03T06:50:39.435Z,2.10
2023-02-03T06:53:24.924Z,3.83
2023-02-03T06:56:10.407Z,3.10
2023-02-03T06:58:55.891Z,3.30
2023-02-03T07:01:41.174Z,4.50
2023-02-03T07:04:30.070Z,4.27
2023-02-03T07:07:15.823Z,5.20
2023-02-03T07:10:02.568Z,3.80
2023-02-03T07:12:48.127Z,1.90
2023-02-03T07:15:33.960Z,2.30
2023-02-03T07:18:45.808Z,3.87
2023-02-03T07:21:29.450Z,2.60
2023-02-03T07:24:14.860Z,1.83
2023-02-03T07:27:00.158Z,2.57
2023-02-03T07:29:45.806Z,2.00
2023-02-03T07:32:32.865Z,3.47
2023-02-03T07:35:19.673Z,2.67
2023-02-03T07:38:04.921Z,3.10
2023-02-03T07:40:50.036Z,2.53
2023-02-03T07:43:35.485Z,2.63
2023-02-03T07:46:20.822Z,2.20
2023-02-03T07:49:06.096Z,2.30
2023-02-03T07:51:51.851Z,2.00
2023-02-03T07:54:37.117Z,3.33
2023-02-03T07:57:22.478Z,2.90
2023-02-03T08:00:08.235Z,2.70
2023-02-03T08:02:59.572Z,1.93
2023-02-03T08:05:44.817Z,2.43
2023-02-03T08:08:31.707Z,2.43
2023-02-03T08:11:16.924Z,2.27
2023-02-03T08:14:02.121Z,2.87
2023-02-03T08:16:47.344Z,2.03
2023-02-03T08:19:32.755Z,2.23
2023-02-03T08:22:18.267Z,2.77
2023-02-03T08:25:03.996Z,3.00
2023-02-03T08:27:49.419Z,1.47
2023-02-03T08:30:34.637Z,2.00
2023-02-03T08:33:19.934Z,2.23
2023-02-03T08:36:06.165Z,2.57
2023-02-03T08:38:51.588Z,2.20
2023-02-03T08:41:36.916Z,1.93
2023-02-03T08:44:22.010Z,2.97
2023-02-03T08:47:08.159Z,5.50
2023-02-03T08:49:53.449Z,2.13
2023-02-03T08:52:38.580Z,2.37
2023-02-03T08:55:24.615Z,2.10
2023-02-03T08:58:10.061Z,2.10
2023-02-03T09:00:55.523Z,2.33
2023-02-03T09:03:41.251Z,2.50
2023-02-03T09:06:26.819Z,1.97
2023-02-03T09:09:12.144Z,2.63
2023-02-03T09:12:02.072Z,1.97
2023-02-03T09:14:47.212Z,2.23
2023-02-03T09:17:32.609Z,3.10
2023-02-03T09:20:17.997Z,2.00
2023-02-03T09:23:03.321Z,1.97
2023-02-03T09:25:49.570Z,1.97
2023-02-03T09:28:35.360Z,1.70
2023-02-03T09:31:20.794Z,2.03
2023-02-03T09:34:06.141Z,2.13
2023-02-03T09:36:51.533Z,2.57
2023-02-03T09:39:36.685Z,2.37
2023-02-03T09:42:36.047Z,3.07
2023-02-03T09:45:26.612Z,1.87
2023-02-03T09:48:23.672Z,2.13
2023-02-03T09:51:20.227Z,2.40
2023-02-03T09:54:15.734Z,2.20
2023-02-03T09:57:05.106Z,1.70
2023-02-03T09:59:51.618Z,1.73
2023-02-03T10:03:03.273Z,2.60
2023-02-03T10:06:12.700Z,1.37
2023-02-03T10:09:09.687Z,1.57
2023-02-03T10:12:18.118Z,1.23
2023-02-03T10:15:03.603Z,2.00
2023-02-03T10:17:58.048Z,1.10
2023-02-03T10:20:47.571Z,1.40
2023-02-03T10:23:40.169Z,2.03
2023-02-03T10:26:29.530Z,1.70
2023-02-03T10:29:38.465Z,2.40
2023-02-03T10:32:27.058Z,2.03
2023-02-03T10:35:13.520Z,1.47
2023-02-03T10:37:59.781Z,2.10
2023-02-03T10:40:45.347Z,1.53
2023-02-03T10:43:47.846Z,1.77
2023-02-03T10:46:39.662Z,3.57
2023-02-03T10:49:27.533Z,2.93
2023-02-03T10:52:29.490Z,1.73
2023-02-03T10:55:27.013Z,1.70
2023-02-03T10:58:27.725Z,2.00
2023-02-03T11:01:15.882Z,2.27
2023-02-03T11:04:04.049Z,2.43
2023-02-03T11:07:06.216Z,2.30
2023-02-03T11:09:51.572Z,1.60
2023-02-03T11:12:36.868Z,1.90
2023-02-03T11:15:22.121Z,1.67
2023-02-03T11:18:52.751Z,0.90
2023-02-03T11:21:37.954Z,1.63
2023-02-03T11:24:23.248Z,1.50
2023-02-03T11:27:19.783Z,1.57
2023-02-03T11:30:26.879Z,1.53
2023-02-03T11:33:24.389Z,1.50
2023-02-03T11:36:11.540Z,1.57
2023-02-03T11:39:19.962Z,2.10
2023-02-03T11:42:21.720Z,1.23
2023-02-03T11:45:30.106Z,2.10
2023-02-03T11:48:18.504Z,1.80
2023-02-03T11:51:06.968Z,1.87
2023-02-03T11:53:58.460Z,1.33
2023-02-03T11:57:13.281Z,1.57
2023-02-03T12:00:13.107Z,1.77
2023-02-03T12:03:14.205Z,0.97
2023-02-03T12:06:38.451Z,1.77
2023-02-03T12:09:40.340Z,1.80
2023-02-03T12:12:36.568Z,1.20
2023-02-03T12:15:36.923Z,1.37
2023-02-03T12:18:53.089Z,1.00
2023-02-03T12:22:00.603Z,1.00
2023-02-03T12:24:46.048Z,1.13
2023-02-03T12:28:07.021Z,0.83
2023-02-03T12:31:00.208Z,1.03
2023-02-03T12:33:52.742Z,1.48
2023-02-03T12:36:49.941Z,1.42
2023-02-03T12:39:44.600Z,0.83
2023-02-03T12:42:32.657Z,1.03
2023-02-03T12:45:25.397Z,0.80
2023-02-03T12:48:17.612Z,1.17
2023-02-03T12:51:07.294Z,1.40
2023-02-03T12:53:58.907Z,1.20
2023-02-03T12:56:48.881Z,1.80
2023-02-03T12:59:36.351Z,1.17
2023-02-03T13:02:28.737Z,1.70
2023-02-03T13:05:23.014Z,2.70
2023-02-03T13:08:32.858Z,0.73
2023-02-03T13:11:52.668Z,2.50
2023-02-03T13:14:49.163Z,2.47
2023-02-03T13:17:56.253Z,4.33
2023-02-03T13:20:41.816Z,11.87
2023-02-03T13:23:27.888Z,19.43
2023-02-03T13:26:55.252Z,16.40
2023-02-03T13:29:50.846Z,15.33
2023-02-03T13:32:51.704Z,13.27
2023-02-03T13:36:01.855Z,12.57
2023-02-03T13:39:16.215Z,10.03
2023-02-03T13:42:18.985Z,9.30
2023-02-03T13:45:28.012Z,8.30
2023-02-03T13:48:28.252Z,11.70
2023-02-03T13:51:18.336Z,8.13
2023-02-03T13:54:14.105Z,9.60
2023-02-03T13:57:21.371Z,7.60
2023-02-03T14:00:44.172Z,8.43
2023-02-03T14:03:29.349Z,9.93
2023-02-03T14:06:39.568Z,6.20
2023-02-03T14:09:31.308Z,8.43
2023-02-03T14:12:32.562Z,5.23
2023-02-03T14:15:18.468Z,7.10
2023-02-03T14:18:07.181Z,6.50
2023-02-03T14:20:56.999Z,5.63
2023-02-03T14:23:47.307Z,8.83
2023-02-03T14:26:38.700Z,7.53
2023-02-03T14:29:25.834Z,7.90
2023-02-03T14:32:14.294Z,6.60
2023-02-03T14:34:59.658Z,5.27
2023-02-03T14:38:02.844Z,7.50
2023-02-03T14:40:58.485Z,8.70
2023-02-03T14:44:14.776Z,10.03
2023-02-03T14:47:13.575Z,8.00
2023-02-03T14:50:07.518Z,7.00
2023-02-03T14:53:19.255Z,10.03
2023-02-03T14:56:21.827Z,9.97
2023-02-03T14:59:11.085Z,6.07
2023-02-03T15:01:56.713Z,7.13
2023-02-03T15:04:43.072Z,7.50
2023-02-03T15:07:45.217Z,7.50
2023-02-03T15:10:41.067Z,8.97
2023-02-03T15:13:28.339Z,6.37
2023-02-03T15:16:19.690Z,8.00
2023-02-03T15:19:20.954Z,13.07
2023-02-03T15:22:19.779Z,12.83
2023-02-03T15:25:16.862Z,10.57
2023-02-03T15:28:13.979Z,9.50
2023-02-03T15:31:05.557Z,13.70
2023-02-03T15:33:54.261Z,9.17
2023-02-03T15:36:49.093Z,9.60
2023-02-03T15:39:51.845Z,8.03
2023-02-03T15:42:57.327Z,8.47
2023-02-03T15:45:59.319Z,11.67
2023-02-03T15:49:32.444Z,9.03
2023-02-03T15:52:24.342Z,10.03
2023-02-03T15:55:21.175Z,8.67
2023-02-03T15:58:06.983Z,10.03
2023-02-03T16:01:01.471Z,6.23
2023-02-03T16:03:52.678Z,13.17
2023-02-03T16:06:40.637Z,9.87
2023-02-03T16:09:26.069Z,8.57
2023-02-03T16:12:18.619Z,8.67
2023-02-03T16:15:04.295Z,7.97
2023-02-03T16:17:57.441Z,9.47
2023-02-03T16:20:50.943Z,9.18
2023-02-03T16:26:27.406Z,7.77
2023-02-03T16:29:32.403Z,5.80
2023-02-03T16:32:37.929Z,7.67
2023-02-03T16:35:42.316Z,11.30
2023-02-03T16:38:46.315Z,6.97
2023-02-03T16:41:51.176Z,9.33
2023-02-03T16:44:55.003Z,9.00
2023-02-03T16:47:58.788Z,9.60
2023-02-03T16:53:48.148Z,7.47
2023-02-03T16:56:33.997Z,7.63
2023-02-03T16:59:19.590Z,10.50
2023-02-03T17:02:05.124Z,11.77
2023-02-03T17:04:50.395Z,10.23
2023-02-03T17:07:35.733Z,8.07
2023-02-03T17:10:21.061Z,10.57
2023-02-03T17:13:10.577Z,10.80
2023-02-03T17:15:57.280Z,10.43
2023-02-03T17:18:43.211Z,15.53
2023-02-03T17:21:29.778Z,16.53
2023-02-03T17:24:15.368Z,13.53
2023-02-03T17:27:00.535Z,14.13
2023-02-03T17:29:45.851Z,14.90
2023-02-03T17:32:31.246Z,13.90
2023-02-03T17:35:19.043Z,15.80
2023-02-03T17:38:04.478Z,14.53
2023-02-03T17:55:49.544Z,11.73
2023-02-03T17:58:35.117Z,8.73
2023-02-03T18:01:20.356Z,11.23
2023-02-03T18:04:08.852Z,8.87
2023-02-03T18:06:54.497Z,8.87
2023-02-03T18:09:39.713Z,10.03
2023-02-03T18:12:25.016Z,13.47
2023-02-03T18:15:10.252Z,11.73
2023-02-03T18:17:56.671Z,9.03
2023-02-03T18:20:42.201Z,9.30
2023-02-03T18:23:29.558Z,10.90
2023-02-03T18:26:15.165Z,8.27
2023-02-03T18:29:00.936Z,10.37
2023-02-03T18:31:47.489Z,11.97
2023-02-03T18:34:33.191Z,10.23
2023-02-03T18:37:18.818Z,11.67
2023-02-03T18:40:06.861Z,13.20
2023-02-03T18:42:56.254Z,9.87
2023-02-03T18:45:42.147Z,14.53
2023-02-03T18:48:27.724Z,10.73
2023-02-03T18:51:15.803Z,12.17
2023-02-03T18:54:03.433Z,12.07
2023-02-03T18:56:50.154Z,11.33
2023-02-03T18:59:36.464Z,8.57
2023-02-03T19:02:25.975Z,10.10
2023-02-03T19:05:12.596Z,13.87
2023-02-03T19:07:58.181Z,11.67
2023-02-03T19:10:44.198Z,8.23
2023-02-03T19:22:12.218Z,13.10
2023-02-03T19:24:56.869Z,14.97
2023-02-03T19:27:41.473Z,12.90
2023-02-03T19:30:25.857Z,9.07
2023-02-03T19:33:10.618Z,18.93
2023-02-03T19:35:56.109Z,14.50
2023-02-03T19:38:41.629Z,13.33
2023-02-03T19:41:27.644Z,16.27
2023-02-03T19:44:14.037Z,9.63
2023-02-03T19:46:59.352Z,10.53
2023-02-03T19:49:44.577Z,10.93
2023-02-03T19:52:30.949Z,11.77
2023-02-03T19:55:17.199Z,12.43
2023-02-03T19:58:02.820Z,12.77
2023-02-03T20:00:48.204Z,11.53
2023-02-03T20:03:33.368Z,10.33
2023-02-03T20:06:19.021Z,14.43
2023-02-03T20:09:06.259Z,9.57
2023-02-03T20:11:51.523Z,11.47
2023-02-03T20:14:37.380Z,11.47
2023-02-03T20:17:22.607Z,11.60
2023-02-03T20:20:08.434Z,12.83
2023-02-03T20:22:53.893Z,9.13
2023-02-03T20:25:39.627Z,13.47
2023-02-03T20:28:26.725Z,8.77
2023-02-03T20:31:13.205Z,10.73
2023-02-03T20:33:59.260Z,9.80
2023-02-03T20:36:44.736Z,10.43
2023-02-03T20:39:31.102Z,9.80
2023-02-03T20:42:17.618Z,10.33
2023-02-03T20:45:08.508Z,11.73
2023-02-03T20:47:54.324Z,10.13
2023-02-03T20:50:46.661Z,7.20
2023-02-03T20:53:32.076Z,13.50
2023-02-03T20:56:21.354Z,7.77
2023-02-03T20:59:11.288Z,9.13
2023-02-03T21:01:56.727Z,8.57
2023-02-03T21:05:00.609Z,9.33
2023-02-03T21:07:45.953Z,8.13
2023-02-03T21:10:31.514Z,7.67
2023-02-03T21:13:24.786Z,7.60
2023-02-03T21:16:18.161Z,7.45
2023-02-03T21:19:03.568Z,9.05
2023-02-03T21:21:52.117Z,7.47
2023-02-03T21:24:39.950Z,7.43
2023-02-03T21:27:34.042Z,7.60
2023-02-03T21:30:28.506Z,5.87
2023-02-03T21:33:41.914Z,7.33
2023-02-03T21:36:34.141Z,7.53
2023-02-03T21:39:27.663Z,6.00
2023-02-03T21:42:43.313Z,7.38
2023-02-03T21:45:42.145Z,7.70
2023-02-03T21:48:34.698Z,5.23
2023-02-03T21:51:23.411Z,13.23
2023-02-03T21:54:28.011Z,6.07
2023-02-03T21:57:15.353Z,6.17
2023-02-03T22:00:00.685Z,7.00
2023-02-03T22:02:48.882Z,8.20
2023-02-03T22:05:37.793Z,6.93
2023-02-03T22:08:23.832Z,7.03
2023-02-03T22:11:09.570Z,7.93
2023-02-03T22:13:55.689Z,5.77
2023-02-03T22:16:41.209Z,7.40
2023-02-03T22:19:26.264Z,5.47
2023-02-03T22:22:11.712Z,7.60
2023-02-03T22:24:57.070Z,7.33
2023-02-03T22:27:42.485Z,7.23
2023-02-03T22:30:27.671Z,6.30
2023-02-03T22:33:12.674Z,5.73
2023-02-03T22:35:58.053Z,8.90
2023-02-03T22:38:43.603Z,7.60
2023-02-03T22:41:29.307Z,6.67
2023-02-03T22:44:16.138Z,6.00
2023-02-03T22:47:01.375Z,7.73
2023-02-03T22:49:46.665Z,5.40
2023-02-03T22:52:32.166Z,8.23
2023-02-03T22:55:17.654Z,6.77
2023-02-03T22:58:03.164Z,5.73
2023-02-03T23:00:48.735Z,5.17
2023-02-03T23:03:34.215Z,6.90
2023-02-03T23:06:19.317Z,6.63
2023-02-03T23:09:04.607Z,5.80
2023-02-03T23:11:49.829Z,3.63
2023-02-03T23:14:36.396Z,4.80
2023-02-03T23:17:21.932Z,5.37
2023-02-03T23:20:09.415Z,7.80
2023-02-03T23:22:55.159Z,7.17
2023-02-03T23:25:40.857Z,6.27
2023-02-03T23:28:25.958Z,6.80
2023-02-03T23:31:11.242Z,3.80
2023-02-03T23:34:15.030Z,6.27
2023-02-03T23:39:49.842Z,4.33
2023-02-03T23:42:36.194Z,4.30
2023-02-03T23:45:21.390Z,4.23
2023-02-03T23:48:07.552Z,4.40
2023-02-03T23:50:52.977Z,3.80
2023-02-03T23:53:38.353Z,4.67
2023-02-03T23:56:23.694Z,2.83
2023-02-03T23:59:09.609Z,5.63
